<?xml version="1.0" encoding="UTF-8" standalone="no" ?>
<gpx xmlns="http://www.topografix.com/GPX/1/1" xmlns:xsi="http://www.w3.org/2001/XMLSchema-instance" xsi:schemaLocation="http://www.topografix.com/GPX/1/1 http://www.topografix.com/GPX/1/1/gpx.xsd" version="1.1" creator="VisuGPX - https://www.visugpx.com">
  <metadata>
    <name>ARQUES LA SEYNE SUR MER 1497 KM</name>
    <desc><![CDATA[Rando de Arques dans le Pas de Calais jusque La Seyne sur Mer dans le Var, 1497 km]]></desc>
  </metadata>
  <trk>
    <name><![CDATA[41 - ST CHAMOND LE BESSAT 14.3 KM]]></name>
    <extensions>
      <line xmlns="http://www.topografix.com/GPX/gpx_style/0/2">
        <color>00FFFF</color>
        <width>4</width>
      </line>
    </extensions>
    <trkseg>
      <trkpt lat="45.47321" lon="4.51614">
        <ele>378</ele>
        <time>2021-11-23T11:16:07+01:00</time>
      </trkpt>
      <trkpt lat="45.47313" lon="4.51631">
        <ele>378</ele>
        <time>2021-11-23T11:16:12+01:00</time>
      </trkpt>
      <trkpt lat="45.47218" lon="4.51618">
        <ele>381</ele>
        <time>2021-11-23T11:16:17+01:00</time>
      </trkpt>
      <trkpt lat="45.4719" lon="4.51641">
        <ele>381</ele>
        <time>2021-11-23T11:16:22+01:00</time>
      </trkpt>
      <trkpt lat="45.47186" lon="4.51684">
        <ele>381</ele>
        <time>2021-11-23T11:16:27+01:00</time>
      </trkpt>
      <trkpt lat="45.47171" lon="4.51684">
        <ele>381</ele>
        <time>2021-11-23T11:16:32+01:00</time>
      </trkpt>
      <trkpt lat="45.47082" lon="4.51596">
        <ele>391</ele>
        <time>2021-11-23T11:16:37+01:00</time>
      </trkpt>
      <trkpt lat="45.46964" lon="4.51483">
        <ele>399</ele>
        <time>2021-11-23T11:16:42+01:00</time>
      </trkpt>
      <trkpt lat="45.46945" lon="4.51472">
        <ele>400</ele>
        <time>2021-11-23T11:16:47+01:00</time>
      </trkpt>
      <trkpt lat="45.46939" lon="4.51443">
        <ele>401</ele>
        <time>2021-11-23T11:16:52+01:00</time>
      </trkpt>
      <trkpt lat="45.4691" lon="4.5134">
        <ele>400</ele>
        <time>2021-11-23T11:16:57+01:00</time>
      </trkpt>
      <trkpt lat="45.46872" lon="4.51258">
        <ele>400</ele>
        <time>2021-11-23T11:17:02+01:00</time>
      </trkpt>
      <trkpt lat="45.46849" lon="4.51111">
        <ele>397</ele>
        <time>2021-11-23T11:17:07+01:00</time>
      </trkpt>
      <trkpt lat="45.4664" lon="4.51065">
        <ele>400</ele>
        <time>2021-11-23T11:17:12+01:00</time>
      </trkpt>
      <trkpt lat="45.46525" lon="4.50995">
        <ele>395</ele>
        <time>2021-11-23T11:17:17+01:00</time>
      </trkpt>
      <trkpt lat="45.46427" lon="4.50901">
        <ele>391</ele>
        <time>2021-11-23T11:17:22+01:00</time>
      </trkpt>
      <trkpt lat="45.46328" lon="4.50729">
        <ele>389</ele>
        <time>2021-11-23T11:17:27+01:00</time>
      </trkpt>
      <trkpt lat="45.46059" lon="4.5061">
        <ele>393</ele>
        <time>2021-11-23T11:17:32+01:00</time>
      </trkpt>
      <trkpt lat="45.45904" lon="4.50538">
        <ele>400</ele>
        <time>2021-11-23T11:17:37+01:00</time>
      </trkpt>
      <trkpt lat="45.45771" lon="4.50512">
        <ele>401</ele>
        <time>2021-11-23T11:17:42+01:00</time>
      </trkpt>
      <trkpt lat="45.45714" lon="4.5047">
        <ele>403</ele>
        <time>2021-11-23T11:17:47+01:00</time>
      </trkpt>
      <trkpt lat="45.45524" lon="4.50454">
        <ele>407</ele>
        <time>2021-11-23T11:17:52+01:00</time>
      </trkpt>
      <trkpt lat="45.45408" lon="4.50463">
        <ele>415</ele>
        <time>2021-11-23T11:17:57+01:00</time>
      </trkpt>
      <trkpt lat="45.45318" lon="4.50402">
        <ele>421</ele>
        <time>2021-11-23T11:18:02+01:00</time>
      </trkpt>
      <trkpt lat="45.45249" lon="4.50358">
        <ele>430</ele>
        <time>2021-11-23T11:18:07+01:00</time>
      </trkpt>
      <trkpt lat="45.45179" lon="4.50381">
        <ele>433</ele>
        <time>2021-11-23T11:18:12+01:00</time>
      </trkpt>
      <trkpt lat="45.45128" lon="4.50405">
        <ele>431</ele>
        <time>2021-11-23T11:18:17+01:00</time>
      </trkpt>
      <trkpt lat="45.44976" lon="4.50328">
        <ele>451</ele>
        <time>2021-11-23T11:18:22+01:00</time>
      </trkpt>
      <trkpt lat="45.4477" lon="4.50391">
        <ele>458</ele>
        <time>2021-11-23T11:18:27+01:00</time>
      </trkpt>
      <trkpt lat="45.44696" lon="4.50477">
        <ele>458</ele>
        <time>2021-11-23T11:18:32+01:00</time>
      </trkpt>
      <trkpt lat="45.44515" lon="4.50622">
        <ele>469</ele>
        <time>2021-11-23T11:18:37+01:00</time>
      </trkpt>
      <trkpt lat="45.44431" lon="4.50771">
        <ele>470</ele>
        <time>2021-11-23T11:18:42+01:00</time>
      </trkpt>
      <trkpt lat="45.44282" lon="4.50873">
        <ele>478</ele>
        <time>2021-11-23T11:18:47+01:00</time>
      </trkpt>
      <trkpt lat="45.44088" lon="4.50995">
        <ele>473</ele>
        <time>2021-11-23T11:18:52+01:00</time>
      </trkpt>
      <trkpt lat="45.44024" lon="4.5096">
        <ele>478</ele>
        <time>2021-11-23T11:18:57+01:00</time>
      </trkpt>
      <trkpt lat="45.43937" lon="4.50934">
        <ele>482</ele>
        <time>2021-11-23T11:19:02+01:00</time>
      </trkpt>
      <trkpt lat="45.43904" lon="4.5099">
        <ele>479</ele>
        <time>2021-11-23T11:19:07+01:00</time>
      </trkpt>
      <trkpt lat="45.43865" lon="4.51072">
        <ele>480</ele>
        <time>2021-11-23T11:19:12+01:00</time>
      </trkpt>
      <trkpt lat="45.43695" lon="4.51132">
        <ele>495</ele>
        <time>2021-11-23T11:19:17+01:00</time>
      </trkpt>
      <trkpt lat="45.43629" lon="4.51146">
        <ele>495</ele>
        <time>2021-11-23T11:19:22+01:00</time>
      </trkpt>
      <trkpt lat="45.43572" lon="4.51116">
        <ele>504</ele>
        <time>2021-11-23T11:19:27+01:00</time>
      </trkpt>
      <trkpt lat="45.43358" lon="4.51226">
        <ele>507</ele>
        <time>2021-11-23T11:19:32+01:00</time>
      </trkpt>
      <trkpt lat="45.43294" lon="4.51251">
        <ele>512</ele>
        <time>2021-11-23T11:19:37+01:00</time>
      </trkpt>
      <trkpt lat="45.43248" lon="4.51314">
        <ele>509</ele>
        <time>2021-11-23T11:19:42+01:00</time>
      </trkpt>
      <trkpt lat="45.43181" lon="4.51375">
        <ele>504</ele>
        <time>2021-11-23T11:19:47+01:00</time>
      </trkpt>
      <trkpt lat="45.4312" lon="4.51368">
        <ele>511</ele>
        <time>2021-11-23T11:19:52+01:00</time>
      </trkpt>
      <trkpt lat="45.43024" lon="4.51412">
        <ele>511</ele>
        <time>2021-11-23T11:19:57+01:00</time>
      </trkpt>
      <trkpt lat="45.42939" lon="4.51396">
        <ele>519</ele>
        <time>2021-11-23T11:20:02+01:00</time>
      </trkpt>
      <trkpt lat="45.42752" lon="4.51401">
        <ele>532</ele>
        <time>2021-11-23T11:20:07+01:00</time>
      </trkpt>
      <trkpt lat="45.42703" lon="4.51454">
        <ele>518</ele>
        <time>2021-11-23T11:20:12+01:00</time>
      </trkpt>
      <trkpt lat="45.42651" lon="4.51468">
        <ele>517</ele>
        <time>2021-11-23T11:20:17+01:00</time>
      </trkpt>
      <trkpt lat="45.42574" lon="4.5165">
        <ele>528</ele>
        <time>2021-11-23T11:20:22+01:00</time>
      </trkpt>
      <trkpt lat="45.42518" lon="4.51615">
        <ele>547</ele>
        <time>2021-11-23T11:20:27+01:00</time>
      </trkpt>
      <trkpt lat="45.42435" lon="4.51557">
        <ele>569</ele>
        <time>2021-11-23T11:20:32+01:00</time>
      </trkpt>
      <trkpt lat="45.42304" lon="4.51566">
        <ele>597</ele>
        <time>2021-11-23T11:20:37+01:00</time>
      </trkpt>
      <trkpt lat="45.42189" lon="4.51559">
        <ele>609</ele>
        <time>2021-11-23T11:20:42+01:00</time>
      </trkpt>
      <trkpt lat="45.41973" lon="4.5154">
        <ele>620</ele>
        <time>2021-11-23T11:20:47+01:00</time>
      </trkpt>
      <trkpt lat="45.41898" lon="4.51585">
        <ele>635</ele>
        <time>2021-11-23T11:20:52+01:00</time>
      </trkpt>
      <trkpt lat="45.41827" lon="4.51559">
        <ele>635</ele>
        <time>2021-11-23T11:20:57+01:00</time>
      </trkpt>
      <trkpt lat="45.41731" lon="4.51601">
        <ele>652</ele>
        <time>2021-11-23T11:21:02+01:00</time>
      </trkpt>
      <trkpt lat="45.41633" lon="4.51577">
        <ele>653</ele>
        <time>2021-11-23T11:21:07+01:00</time>
      </trkpt>
      <trkpt lat="45.41625" lon="4.51639">
        <ele>667</ele>
        <time>2021-11-23T11:21:12+01:00</time>
      </trkpt>
      <trkpt lat="45.41538" lon="4.51668">
        <ele>676</ele>
        <time>2021-11-23T11:21:17+01:00</time>
      </trkpt>
      <trkpt lat="45.4148" lon="4.51725">
        <ele>689</ele>
        <time>2021-11-23T11:21:22+01:00</time>
      </trkpt>
      <trkpt lat="45.4134" lon="4.52043">
        <ele>733</ele>
        <time>2021-11-23T11:21:27+01:00</time>
      </trkpt>
      <trkpt lat="45.41276" lon="4.52188">
        <ele>758</ele>
        <time>2021-11-23T11:21:32+01:00</time>
      </trkpt>
      <trkpt lat="45.41183" lon="4.52349">
        <ele>773</ele>
        <time>2021-11-23T11:21:37+01:00</time>
      </trkpt>
      <trkpt lat="45.41122" lon="4.52421">
        <ele>782</ele>
        <time>2021-11-23T11:21:42+01:00</time>
      </trkpt>
      <trkpt lat="45.41153" lon="4.52414">
        <ele>781</ele>
        <time>2021-11-23T11:21:47+01:00</time>
      </trkpt>
      <trkpt lat="45.41053" lon="4.52499">
        <ele>793</ele>
        <time>2021-11-23T11:21:52+01:00</time>
      </trkpt>
      <trkpt lat="45.40962" lon="4.52616">
        <ele>808</ele>
        <time>2021-11-23T11:21:57+01:00</time>
      </trkpt>
      <trkpt lat="45.40938" lon="4.52693">
        <ele>817</ele>
        <time>2021-11-23T11:22:02+01:00</time>
      </trkpt>
      <trkpt lat="45.40873" lon="4.52743">
        <ele>828</ele>
        <time>2021-11-23T11:22:07+01:00</time>
      </trkpt>
      <trkpt lat="45.40796" lon="4.52735">
        <ele>830</ele>
        <time>2021-11-23T11:22:12+01:00</time>
      </trkpt>
      <trkpt lat="45.40651" lon="4.52875">
        <ele>847</ele>
        <time>2021-11-23T11:22:17+01:00</time>
      </trkpt>
      <trkpt lat="45.40565" lon="4.52883">
        <ele>860</ele>
        <time>2021-11-23T11:22:22+01:00</time>
      </trkpt>
      <trkpt lat="45.40507" lon="4.52921">
        <ele>867</ele>
        <time>2021-11-23T11:22:27+01:00</time>
      </trkpt>
      <trkpt lat="45.40416" lon="4.52888">
        <ele>877</ele>
        <time>2021-11-23T11:22:32+01:00</time>
      </trkpt>
      <trkpt lat="45.40367" lon="4.52903">
        <ele>883</ele>
        <time>2021-11-23T11:22:37+01:00</time>
      </trkpt>
      <trkpt lat="45.40331" lon="4.52971">
        <ele>888</ele>
        <time>2021-11-23T11:22:42+01:00</time>
      </trkpt>
      <trkpt lat="45.39959" lon="4.53061">
        <ele>965</ele>
        <time>2021-11-23T11:22:47+01:00</time>
      </trkpt>
      <trkpt lat="45.39841" lon="4.53017">
        <ele>980</ele>
        <time>2021-11-23T11:22:52+01:00</time>
      </trkpt>
      <trkpt lat="45.39783" lon="4.52958">
        <ele>986</ele>
        <time>2021-11-23T11:22:57+01:00</time>
      </trkpt>
      <trkpt lat="45.39603" lon="4.52945">
        <ele>1007</ele>
        <time>2021-11-23T11:23:02+01:00</time>
      </trkpt>
      <trkpt lat="45.39368" lon="4.53121">
        <ele>1037</ele>
        <time>2021-11-23T11:23:07+01:00</time>
      </trkpt>
      <trkpt lat="45.39263" lon="4.52989">
        <ele>1054</ele>
        <time>2021-11-23T11:23:12+01:00</time>
      </trkpt>
      <trkpt lat="45.39126" lon="4.52953">
        <ele>1078</ele>
        <time>2021-11-23T11:23:17+01:00</time>
      </trkpt>
      <trkpt lat="45.39034" lon="4.52981">
        <ele>1088</ele>
        <time>2021-11-23T11:23:22+01:00</time>
      </trkpt>
      <trkpt lat="45.38855" lon="4.52986">
        <ele>1089</ele>
        <time>2021-11-23T11:23:27+01:00</time>
      </trkpt>
      <trkpt lat="45.38744" lon="4.52945">
        <ele>1098</ele>
        <time>2021-11-23T11:23:32+01:00</time>
      </trkpt>
      <trkpt lat="45.38552" lon="4.52898">
        <ele>1099</ele>
        <time>2021-11-23T11:23:37+01:00</time>
      </trkpt>
      <trkpt lat="45.38401" lon="4.52872">
        <ele>1100</ele>
        <time>2021-11-23T11:23:42+01:00</time>
      </trkpt>
      <trkpt lat="45.38255" lon="4.52826">
        <ele>1102</ele>
        <time>2021-11-23T11:23:47+01:00</time>
      </trkpt>
      <trkpt lat="45.38058" lon="4.52826">
        <ele>1110</ele>
        <time>2021-11-23T11:23:52+01:00</time>
      </trkpt>
      <trkpt lat="45.37802" lon="4.52831">
        <ele>1139</ele>
        <time>2021-11-23T11:23:57+01:00</time>
      </trkpt>
      <trkpt lat="45.37564" lon="4.52735">
        <ele>1153</ele>
        <time>2021-11-23T11:24:02+01:00</time>
      </trkpt>
      <trkpt lat="45.3724" lon="4.52771">
        <ele>1181</ele>
        <time>2021-11-23T11:24:07+01:00</time>
      </trkpt>
      <trkpt lat="45.37047" lon="4.52833">
        <ele>1197</ele>
        <time>2021-11-23T11:24:12+01:00</time>
      </trkpt>
      <trkpt lat="45.3685" lon="4.5282">
        <ele>1203</ele>
        <time>2021-11-23T11:24:17+01:00</time>
      </trkpt>
      <trkpt lat="45.36776" lon="4.52797">
        <ele>1207</ele>
        <time>2021-11-23T11:24:22+01:00</time>
      </trkpt>
      <trkpt lat="45.36814" lon="4.52649">
        <ele>1206</ele>
        <time>2021-11-23T11:24:27+01:00</time>
      </trkpt>
      <trkpt lat="45.3681" lon="4.5223">
        <ele>1202</ele>
        <time>2021-11-23T11:24:32+01:00</time>
      </trkpt>
      <trkpt lat="45.36776" lon="4.51896">
        <ele>1186</ele>
        <time>2021-11-23T11:24:37+01:00</time>
      </trkpt>
      <trkpt lat="45.36843" lon="4.51639">
        <ele>1175</ele>
        <time>2021-11-23T11:24:42+01:00</time>
      </trkpt>
      <trkpt lat="45.36856" lon="4.51577">
        <ele>1174</ele>
        <time>2021-11-23T11:24:47+01:00</time>
      </trkpt>
    </trkseg>
  </trk>
</gpx>